createdAt,value
2018-03-14T00:01:41.820Z,8.53
2018-03-14T00:06:43.190Z,8.61
2018-03-14T00:11:44.553Z,8.66
2018-03-14T00:16:45.964Z,8.57
2018-03-14T00:21:47.336Z,8.53
2018-03-14T00:26:48.720Z,8.42
2018-03-14T00:31:50.115Z,8.41
2018-03-14T00:36:52.245Z,8.37
2018-03-14T00:41:53.612Z,8.49
2018-03-14T00:46:55.745Z,8.59
2018-03-14T00:51:57.135Z,8.65
2018-03-14T00:56:58.555Z,8.64
2018-03-14T01:01:59.979Z,8.48
2018-03-14T01:07:01.368Z,8.46
2018-03-14T01:12:02.747Z,8.24
2018-03-14T01:17:04.163Z,8.27
2018-03-14T01:22:06.268Z,8.35
2018-03-14T01:27:07.665Z,8.20
2018-03-14T01:32:09.776Z,8.28
2018-03-14T01:37:11.903Z,8.23
2018-03-14T01:42:13.331Z,8.24
2018-03-14T01:47:14.692Z,8.24
2018-03-14T01:52:16.073Z,8.18
2018-03-14T01:57:17.439Z,8.17
2018-03-14T02:02:18.836Z,8.19
2018-03-14T02:07:20.242Z,8.28
2018-03-14T02:12:21.644Z,8.30
2018-03-14T02:17:23.023Z,8.33
2018-03-14T02:22:24.459Z,8.30
2018-03-14T02:27:25.812Z,8.30
2018-03-14T02:32:27.159Z,8.35
2018-03-14T02:37:28.544Z,8.47
2018-03-14T02:42:30.035Z,8.45
2018-03-14T02:47:31.387Z,8.46
2018-03-14T02:52:33.528Z,8.32
2018-03-14T02:57:34.897Z,8.37
2018-03-14T03:02:36.231Z,8.39
2018-03-14T03:07:37.603Z,8.33
2018-03-14T03:12:38.960Z,8.22
2018-03-14T03:17:40.307Z,8.22
2018-03-14T03:22:41.679Z,8.17
2018-03-14T03:27:43.059Z,8.20
2018-03-14T03:32:44.402Z,8.18
2018-03-14T03:37:46.479Z,8.12
2018-03-14T03:42:47.819Z,8.04
2018-03-14T03:47:49.220Z,8.10
2018-03-14T03:52:50.618Z,8.06
2018-03-14T03:57:51.980Z,8.05
2018-03-14T04:02:54.094Z,8.04
2018-03-14T04:07:55.471Z,8.00
2018-03-14T04:12:57.602Z,8.04
2018-03-14T04:17:59.008Z,8.03
2018-03-14T04:23:00.411Z,7.99
2018-03-14T04:28:01.763Z,8.08
2018-03-14T04:33:03.110Z,8.10
2018-03-14T04:38:04.492Z,8.02
2018-03-14T04:43:05.855Z,8.04
2018-03-14T04:48:07.315Z,8.02
2018-03-14T04:53:08.691Z,7.94
2018-03-14T04:58:10.039Z,7.95
2018-03-14T05:03:11.391Z,7.84
2018-03-14T05:08:13.503Z,7.96
2018-03-14T05:13:15.582Z,7.83
2018-03-14T05:18:17.052Z,7.92
2018-03-14T05:23:19.149Z,7.95
2018-03-14T05:28:20.503Z,7.94
2018-03-14T05:33:21.976Z,7.95
2018-03-14T05:38:24.097Z,7.93
2018-03-14T05:43:26.235Z,7.92
2018-03-14T05:48:27.593Z,8.01
2018-03-14T05:53:28.958Z,8.03
2018-03-14T05:58:31.417Z,8.13
2018-03-14T06:03:33.434Z,8.10
2018-03-14T06:08:35.880Z,8.17
2018-03-14T06:13:38.210Z,8.18
2018-03-14T06:18:40.400Z,8.26
2018-03-14T06:23:42.694Z,8.41
2018-03-14T06:28:45.011Z,8.46
2018-03-14T06:33:48.000Z,8.43
2018-03-14T06:38:50.394Z,8.45
2018-03-14T06:43:52.276Z,8.46
2018-03-14T06:48:54.501Z,8.47
2018-03-14T06:53:56.611Z,8.64
2018-03-14T06:59:16.884Z,8.64
2018-03-14T07:04:37.127Z,8.53
2018-03-14T07:09:38.662Z,8.54
2018-03-14T07:14:41.026Z,8.68
2018-03-14T07:19:43.255Z,8.71
2018-03-14T07:24:46.957Z,8.61
2018-03-14T07:29:49.636Z,8.71
2018-03-14T07:34:51.916Z,8.62
2018-03-14T07:39:53.742Z,8.65
2018-03-14T07:44:55.554Z,8.55
2018-03-14T07:49:57.516Z,8.62
2018-03-14T07:54:59.465Z,8.71
2018-03-14T08:00:02.477Z,8.78
2018-03-14T08:05:04.717Z,8.87
2018-03-14T08:10:07.071Z,8.86
2018-03-14T08:15:09.088Z,8.99
2018-03-14T08:20:11.217Z,8.98
2018-03-14T08:25:14.259Z,9.06
2018-03-14T08:30:16.267Z,9.23
2018-03-14T08:40:20.510Z,9.39
2018-03-14T08:45:23.046Z,9.67
2018-03-14T08:50:26.268Z,9.74
2018-03-14T08:55:28.586Z,9.83
2018-03-14T09:00:30.852Z,10.05
2018-03-14T09:05:32.925Z,10.18
2018-03-14T09:10:35.166Z,10.28
2018-03-14T09:15:37.258Z,10.45
2018-03-14T09:20:38.678Z,10.29
2018-03-14T09:25:40.620Z,10.51
2018-03-14T09:30:43.115Z,10.55
2018-03-14T09:35:46.539Z,10.75
2018-03-14T09:40:48.508Z,10.98
2018-03-14T09:46:05.133Z,11.11
2018-03-14T09:51:08.561Z,11.21
2018-03-14T09:56:10.662Z,11.13
2018-03-14T10:01:12.564Z,11.42
2018-03-14T10:06:13.926Z,11.58
2018-03-14T10:11:15.267Z,11.77
2018-03-14T10:16:17.392Z,12.09
2018-03-14T10:21:18.832Z,12.28
2018-03-14T10:26:20.212Z,11.65
2018-03-14T10:31:21.573Z,11.58
2018-03-14T10:36:22.940Z,11.63
2018-03-14T10:41:25.084Z,11.61
2018-03-14T10:46:26.460Z,11.92
2018-03-14T10:51:27.809Z,12.16
2018-03-14T10:56:29.601Z,12.19
2018-03-14T11:01:37.201Z,11.81
2018-03-14T11:06:39.015Z,11.39
2018-03-14T11:11:40.441Z,11.58
2018-03-14T11:16:41.815Z,11.69
2018-03-14T11:21:43.213Z,11.61
2018-03-14T11:26:44.979Z,11.14
2018-03-14T11:31:48.437Z,11.45
2018-03-14T11:36:50.039Z,11.44
2018-03-14T11:41:51.440Z,11.70
2018-03-14T11:46:52.872Z,11.84
2018-03-14T11:51:54.648Z,12.02
2018-03-14T11:56:56.027Z,11.97
2018-03-14T12:01:57.366Z,12.11
2018-03-14T12:06:58.790Z,11.98
2018-03-14T12:12:00.317Z,11.78
2018-03-14T12:17:02.414Z,12.23
2018-03-14T12:22:03.807Z,12.28
2018-03-14T12:27:05.253Z,11.97
2018-03-14T12:32:06.798Z,11.70
2018-03-14T12:37:08.903Z,11.98
2018-03-14T12:42:10.339Z,12.00
2018-03-14T12:47:11.785Z,11.70
2018-03-14T12:52:13.430Z,12.09
2018-03-14T12:57:15.660Z,12.12
2018-03-14T13:02:17.048Z,12.23
2018-03-14T13:07:18.447Z,12.31
2018-03-14T13:12:20.668Z,12.39
2018-03-14T13:17:22.052Z,12.33
2018-03-14T13:22:23.422Z,12.47
2018-03-14T13:27:24.816Z,12.25
2018-03-14T13:32:26.339Z,11.80
2018-03-14T13:37:27.821Z,11.47
2018-03-14T13:42:29.362Z,11.37
2018-03-14T13:47:31.521Z,11.30
2018-03-14T13:52:32.859Z,11.44
2018-03-14T13:57:35.102Z,11.44
2018-03-14T14:02:36.508Z,11.47
2018-03-14T14:07:37.872Z,11.10
2018-03-14T14:12:39.244Z,10.92
2018-03-14T14:17:40.609Z,11.27
2018-03-14T14:22:42.012Z,11.36
2018-03-14T14:27:44.851Z,11.25
2018-03-14T14:32:46.258Z,11.24
2018-03-14T14:37:47.633Z,11.28
2018-03-14T14:42:50.578Z,10.85
2018-03-14T14:47:51.979Z,10.38
2018-03-14T14:52:53.324Z,10.17
2018-03-14T14:57:54.808Z,10.09
2018-03-14T15:02:56.232Z,10.78
2018-03-14T15:07:58.447Z,10.99
2018-03-14T15:13:00.068Z,10.28
2018-03-14T15:18:01.414Z,10.10
2018-03-14T15:23:03.516Z,9.56
2018-03-14T15:28:04.850Z,9.52
2018-03-14T15:33:06.195Z,9.54
2018-03-14T15:38:08.329Z,9.44
2018-03-14T15:43:09.685Z,9.32
2018-03-14T15:48:11.059Z,9.47
2018-03-14T15:53:12.403Z,9.42
2018-03-14T15:58:13.759Z,9.97
2018-03-14T16:03:15.148Z,9.98
2018-03-14T16:08:16.553Z,10.14
2018-03-14T16:13:19.283Z,10.28
2018-03-14T16:18:21.573Z,10.36
2018-03-14T16:23:24.007Z,9.75
2018-03-14T16:28:26.484Z,9.53
2018-03-14T16:33:28.249Z,9.41
2018-03-14T16:38:30.194Z,9.33
2018-03-14T16:43:33.627Z,9.58
2018-03-14T16:48:37.030Z,9.71
2018-03-14T16:53:38.797Z,9.58
2018-03-14T16:58:40.476Z,9.29
2018-03-14T17:03:42.972Z,9.62
2018-03-14T17:08:44.524Z,9.74
2018-03-14T17:13:45.964Z,9.45
2018-03-14T17:18:47.446Z,9.15
2018-03-14T17:23:49.298Z,9.13
2018-03-14T17:28:51.787Z,9.12
2018-03-14T17:33:54.146Z,8.97
2018-03-14T17:38:55.945Z,8.85
2018-03-14T17:43:57.900Z,8.67
2018-03-14T17:48:59.352Z,8.59
2018-03-14T17:54:00.944Z,8.56
2018-03-14T17:59:02.613Z,8.61
2018-03-14T18:04:05.152Z,8.74
2018-03-14T18:14:40.883Z,8.36
2018-03-14T18:19:43.417Z,8.33
2018-03-14T18:24:44.898Z,8.33
2018-03-14T18:29:46.475Z,8.29
2018-03-14T18:34:48.226Z,8.28
2018-03-14T18:39:49.745Z,8.35
2018-03-14T18:44:54.433Z,8.52
2018-03-14T18:49:56.695Z,8.35
2018-03-14T18:54:58.785Z,8.29
2018-03-14T19:00:00.141Z,8.12
2018-03-14T19:05:02.504Z,7.85
2018-03-14T19:10:03.876Z,7.73
2018-03-14T19:15:05.370Z,7.83
2018-03-14T19:20:07.559Z,7.81
2018-03-14T19:25:09.776Z,7.58
2018-03-14T19:30:11.970Z,7.40
2018-03-14T19:35:14.630Z,7.34
2018-03-14T19:40:15.991Z,7.18
2018-03-14T19:45:18.076Z,7.21
2018-03-14T19:50:19.690Z,7.09
2018-03-14T19:55:21.800Z,7.10
2018-03-14T20:00:23.877Z,7.02
2018-03-14T20:05:25.343Z,6.87
2018-03-14T20:10:26.713Z,6.94
2018-03-14T20:15:28.056Z,6.77
2018-03-14T20:20:29.479Z,6.75
2018-03-14T20:25:32.441Z,6.75
2018-03-14T20:30:33.821Z,6.63
2018-03-14T20:35:35.251Z,6.55
2018-03-14T20:40:36.649Z,6.48
2018-03-14T20:45:38.062Z,6.44
2018-03-14T20:50:39.431Z,6.34
2018-03-14T20:55:40.897Z,6.26
2018-03-14T21:00:42.290Z,6.35
2018-03-14T21:05:43.734Z,6.21
2018-03-14T21:10:45.853Z,6.18
2018-03-14T21:15:47.254Z,6.32
2018-03-14T21:20:48.592Z,6.24
2018-03-14T21:25:50.026Z,6.17
2018-03-14T21:30:51.372Z,6.08
2018-03-14T21:35:52.731Z,5.99
2018-03-14T21:40:54.089Z,6.04
2018-03-14T21:45:55.443Z,6.08
2018-03-14T21:50:56.829Z,6.10
2018-03-14T21:55:58.145Z,6.11
2018-03-14T22:01:00.328Z,6.01
2018-03-14T22:06:01.739Z,6.01
2018-03-14T22:11:03.156Z,6.03
2018-03-14T22:16:04.769Z,5.97
2018-03-14T22:21:06.229Z,6.02
2018-03-14T22:26:07.720Z,5.96
2018-03-14T22:31:09.849Z,5.82
2018-03-14T22:36:11.256Z,5.93
2018-03-14T22:41:12.667Z,5.93
2018-03-14T22:46:14.042Z,5.81
2018-03-14T22:51:15.429Z,5.76
2018-03-14T22:56:16.830Z,5.71
2018-03-14T23:01:18.204Z,5.76
2018-03-14T23:06:19.687Z,5.65
2018-03-14T23:11:21.045Z,5.69
2018-03-14T23:16:22.504Z,5.62
2018-03-14T23:21:23.909Z,5.52
2018-03-14T23:26:25.333Z,5.44
2018-03-14T23:31:26.709Z,5.45
2018-03-14T23:36:28.102Z,5.40
2018-03-14T23:41:29.482Z,5.30
2018-03-14T23:46:30.812Z,5.17
2018-03-14T23:51:32.175Z,5.29
2018-03-14T23:56:33.568Z,5.23
